EHTX weather

Texel Airfield
Texel, Noord-Holland, Netherlands

Public forecast

Using degrees Celsius for public forecast. Weather courtesy of forecast.io.

METAR (pilot weather report)

Closest report is De Kooy Airport, 11.7 nm (21.6 km) S. Retrieved 2019/09/23 06:25 UTC (0 seconds ago):

EHKD 230625Z AUTO 18007KT 4500 BR FEW003 OVC110 16/15 Q1011 GRN 20008KT 4000 -DZ SCT005 BKN010 OVC015

TAF (pilot weather forecast)

Closest forecast is De Kooy Airport, 11.7 nm (21.6 km) S. Retrieved 2019/09/23 05:06 UTC (1 hour ago):

TAF EHKD 230421Z 2305/2317 20008KT 7000 FEW010 SCT015 BKN070 TEMPO 2305/2309 4000 -DZ SCT005 BKN010 OVC015 BECMG 2308/2311 FEW020 SCT030 PROB30 TEMPO 2309/2317 FEW015 SCT018CB